Time;durP1;ratioP1;P1;durP2;ratioP2;P2;SDS_P1;SDS_P2;PMS_P1;PMS_P2;Temp;Humidity;BMP_temperature;BMP_pressure;BME280_temperature;BME280_humidity;BME280_pressure;Samples;Min_cycle;Max_cycle;Signal;HPM_P1;HPM_P2
2023/10/27 00:00:02;;;;;;;11.68;1.83;;;;;;;22.12;68.45;95193.72;5094991;28;20016;-31
2023/10/27 00:02:27;;;;;;;11.45;1.50;;;;;;;22.01;69.27;95188.38;5094852;28;20050;-31
2023/10/27 00:04:52;;;;;;;11.23;2.30;;;;;;;21.95;69.27;95179.47;5094998;28;20024;-31
2023/10/27 00:07:19;;;;;;;10.70;2.00;;;;;;;22.07;69.31;95163.44;5094892;28;20031;-31
2023/10/27 00:09:45;;;;;;;10.77;2.00;;;;;;;21.85;69.85;95151.53;5094474;28;20028;-31
2023/10/27 00:12:10;;;;;;;9.23;1.80;;;;;;;21.95;69.48;95162.91;5094881;28;20016;-31
2023/10/27 00:14:36;;;;;;;17.77;2.08;;;;;;;22.13;69.03;95166.84;5094586;28;20027;-31
2023/10/27 00:17:01;;;;;;;12.48;2.08;;;;;;;21.88;69.86;95168.31;5094861;28;20356;-31
2023/10/27 00:19:27;;;;;;;11.15;1.92;;;;;;;21.88;70.45;95168.31;5094788;28;20078;-31
2023/10/27 00:21:52;;;;;;;13.00;2.00;;;;;;;21.96;69.84;95166.41;5094862;28;20020;-31
2023/10/27 00:24:18;;;;;;;10.80;1.85;;;;;;;21.64;70.99;95167.22;5094436;28;20031;-31
2023/10/27 00:26:44;;;;;;;8.02;2.33;;;;;;;21.77;71.03;95163.75;5094307;28;20023;-31
2023/10/27 00:29:09;;;;;;;11.98;2.97;;;;;;;21.78;70.84;95154.94;5094360;28;20024;-31
2023/10/27 00:31:35;;;;;;;9.18;1.70;;;;;;;22.02;69.89;95147.72;5094294;28;20027;-31
2023/10/27 00:34:00;;;;;;;9.63;2.10;;;;;;;21.71;71.44;95141.78;5094421;28;20459;-31
2023/10/27 00:36:26;;;;;;;12.82;2.05;;;;;;;21.95;71.08;95131.78;5094702;28;20024;-31
2023/10/27 00:38:51;;;;;;;11.82;2.42;;;;;;;22.10;70.73;95124.47;5094715;28;20055;-31
2023/10/27 00:41:17;;;;;;;14.93;1.77;;;;;;;21.85;71.69;95121.19;5094182;28;20012;-31
2023/10/27 00:43:45;;;;;;;11.82;1.98;;;;;;;21.86;71.41;95122.66;5094215;28;20012;-31
2023/10/27 00:46:11;;;;;;;14.13;2.35;;;;;;;21.76;71.95;95118.84;5094235;28;20572;-31
2023/10/27 00:48:36;;;;;;;11.35;1.65;;;;;;;21.74;72.03;95118.66;5094619;28;20032;-31
2023/10/27 00:51:05;;;;;;;9.88;1.70;;;;;;;21.99;71.28;95115.69;5094420;28;20016;-31
2023/10/27 00:53:31;;;;;;;14.35;2.00;;;;;;;21.84;71.50;95105.16;5093882;28;20094;-31
2023/10/27 00:55:57;;;;;;;12.52;2.03;;;;;;;21.99;71.11;95097.09;5093641;28;20352;-31
2023/10/27 00:58:23;;;;;;;12.75;2.38;;;;;;;21.93;70.91;95087.41;5094172;28;20019;-31
2023/10/27 01:00:48;;;;;;;11.95;2.30;;;;;;;22.04;70.88;95067.88;5094066;28;20032;-31
2023/10/27 01:03:14;;;;;;;12.27;1.92;;;;;;;21.94;70.64;95056.50;5097833;28;20061;-31
2023/10/27 01:05:39;;;;;;;10.18;2.00;;;;;;;21.56;73.06;95053.28;5096560;28;20463;-31
2023/10/27 01:08:05;;;;;;;9.65;1.75;;;;;;;21.79;71.91;95065.34;5093823;28;20043;-31
2023/10/27 01:10:31;;;;;;;13.27;2.47;;;;;;;21.70;71.97;95063.03;5094068;28;20022;-31
2023/10/27 01:12:56;;;;;;;14.07;2.17;;;;;;;21.88;71.38;95055.16;5093871;28;20062;-31
2023/10/27 01:15:21;;;;;;;9.48;1.70;;;;;;;21.89;70.76;95051.84;5093858;28;20425;-31
2023/10/27 01:17:47;;;;;;;12.23;2.00;;;;;;;22.07;70.21;95053.75;5101051;28;20016;-31
2023/10/27 01:20:12;;;;;;;8.52;1.77;;;;;;;22.11;70.44;95045.16;5092913;28;20027;-31
2023/10/27 01:22:48;;;;;;;6.90;1.75;;;;;;;21.97;70.39;95046.44;5093607;28;20440;-31
2023/10/27 01:25:15;;;;;;;7.53;1.60;;;;;;;22.04;70.61;95037.50;5093467;28;20024;-31
2023/10/27 01:27:41;;;;;;;11.95;2.05;;;;;;;22.11;69.72;95031.34;5101022;28;20459;-31
2023/10/27 01:30:08;;;;;;;9.90;1.65;;;;;;;21.96;70.28;95020.84;5094001;28;20074;-31
2023/10/27 01:32:34;;;;;;;7.95;1.67;;;;;;;21.96;70.33;95017.34;5093685;28;20483;-32
2023/10/27 01:35:00;;;;;;;13.13;2.33;;;;;;;22.10;69.64;95024.34;5093245;28;20125;-31
2023/10/27 01:37:25;;;;;;;9.32;1.77;;;;;;;22.08;69.16;95008.31;5093943;28;20470;-31
2023/10/27 01:39:51;;;;;;;8.30;1.65;;;;;;;21.88;69.99;95001.41;5093746;28;20475;-31
2023/10/27 01:42:16;;;;;;;10.85;1.95;;;;;;;21.88;69.91;94988.94;5096731;28;20459;-31
2023/10/27 01:44:41;;;;;;;9.95;1.55;;;;;;;21.93;69.90;94993.56;5098274;28;20082;-31
2023/10/27 01:47:08;;;;;;;11.30;2.20;;;;;;;21.90;69.88;94992.59;5097279;28;20012;-32
2023/10/27 01:49:33;;;;;;;8.45;1.70;;;;;;;22.05;68.88;94990.03;5097789;28;20032;-31
2023/10/27 01:51:59;;;;;;;8.38;1.90;;;;;;;21.93;69.62;94982.53;5097554;28;20563;-32
2023/10/27 01:54:24;;;;;;;12.10;2.53;;;;;;;21.97;68.95;94988.47;5097069;28;20372;-31
2023/10/27 01:56:49;;;;;;;8.73;1.50;;;;;;;22.26;68.12;94981.03;5105114;28;20716;-32
2023/10/27 01:59:15;;;;;;;8.57;2.00;;;;;;;22.07;68.93;94972.94;5097467;28;20386;-31
2023/10/27 02:01:40;;;;;;;7.47;1.55;;;;;;;22.01;68.94;94964.78;5097488;28;20368;-31
2023/10/27 02:04:06;;;;;;;7.70;1.58;;;;;;;21.86;69.33;94975.66;5096901;28;20166;-31
2023/10/27 02:06:31;;;;;;;7.20;1.42;;;;;;;22.07;68.34;94964.66;5095881;28;20081;-31
2023/10/27 02:08:57;;;;;;;9.48;1.63;;;;;;;21.79;69.58;94957.72;5097142;28;20012;-31
2023/10/27 02:11:23;;;;;;;9.52;1.75;;;;;;;22.10;68.58;94947.78;5097056;28;20020;-31
2023/10/27 02:13:49;;;;;;;9.57;1.70;;;;;;;22.13;68.15;94927.34;5097280;28;20101;-31
2023/10/27 02:16:15;;;;;;;12.57;1.90;;;;;;;21.88;68.81;94946.22;5104872;28;20059;-31
2023/10/27 02:18:40;;;;;;;14.02;2.05;;;;;;;22.06;68.42;94932.81;5096767;28;20047;-31
2023/10/27 02:21:06;;;;;;;9.73;1.88;;;;;;;21.96;67.88;94935.28;5097515;28;20053;-31
2023/10/27 02:23:31;;;;;;;6.75;1.30;;;;;;;21.97;68.30;94930.50;5096861;28;20024;-31
2023/10/27 02:25:56;;;;;;;8.60;1.77;;;;;;;21.84;68.47;94936.81;5096864;28;20028;-31
2023/10/27 02:28:22;;;;;;;8.13;2.40;;;;;;;22.09;67.32;94942.78;5096682;28;20032;-31
2023/10/27 02:30:47;;;;;;;9.15;1.75;;;;;;;22.12;67.33;94939.69;5096380;28;20024;-32
2023/10/27 02:33:13;;;;;;;9.13;2.10;;;;;;;22.08;67.69;94930.25;5095532;28;20031;-32
2023/10/27 02:35:39;;;;;;;9.60;2.15;;;;;;;22.13;67.78;94926.63;5096412;28;20020;-31
2023/10/27 02:38:04;;;;;;;9.68;2.20;;;;;;;21.85;68.41;94938.28;5097267;28;20030;-31
2023/10/27 02:40:35;;;;;;;8.38;1.70;;;;;;;21.91;68.27;94927.84;5096740;28;20069;-31
2023/10/27 02:43:03;;;;;;;7.88;1.45;;;;;;;21.90;68.22;94922.88;5096980;28;20016;-32
2023/10/27 02:45:29;;;;;;;5.65;1.27;;;;;;;21.94;68.26;94896.41;5096424;28;20103;-31
2023/10/27 02:47:55;;;;;;;6.68;1.67;;;;;;;21.95;68.06;94891.66;5096453;28;20531;-31
2023/10/27 02:50:20;;;;;;;10.93;1.55;;;;;;;21.68;68.78;94880.72;5096610;28;20019;-31
2023/10/27 02:52:46;;;;;;;9.55;2.00;;;;;;;21.81;68.35;94883.44;5094886;28;20403;-31
2023/10/27 02:55:12;;;;;;;10.65;1.70;;;;;;;21.93;67.61;94885.91;5096483;28;20012;-32
2023/10/27 02:57:37;;;;;;;11.57;1.70;;;;;;;21.94;68.01;94887.41;5096090;28;20046;-32
2023/10/27 03:00:06;;;;;;;10.82;2.13;;;;;;;21.90;67.65;94901.53;5095920;28;20027;-31
2023/10/27 03:02:32;;;;;;;12.75;2.55;;;;;;;21.94;67.73;94895.69;5096043;28;20016;-31
2023/10/27 03:04:57;;;;;;;7.88;1.67;;;;;;;21.94;67.73;94895.69;5096112;28;20077;-31
2023/10/27 03:07:23;;;;;;;8.50;1.40;;;;;;;21.64;68.05;94912.66;5095857;28;20491;-31
2023/10/27 03:09:48;;;;;;;9.43;2.33;;;;;;;21.84;67.67;94903.69;5096507;28;20417;-31
2023/10/27 03:12:14;;;;;;;11.77;2.47;;;;;;;21.99;66.82;94909.38;5095712;28;20046;-31
2023/10/27 03:14:40;;;;;;;8.55;1.45;;;;;;;21.79;67.38;94913.56;5096151;28;20063;-31
2023/10/27 03:17:05;;;;;;;13.25;1.70;;;;;;;22.00;66.91;94910.88;5095922;28;20526;-31
2023/10/27 03:19:30;;;;;;;7.70;1.63;;;;;;;22.07;66.26;94910.19;5096299;28;20459;-31
2023/10/27 03:21:56;;;;;;;9.60;1.85;;;;;;;21.94;66.60;94912.97;5102876;28;20028;-31
2023/10/27 03:24:22;;;;;;;8.75;1.73;;;;;;;21.96;66.75;94904.91;5105397;28;20383;-31
2023/10/27 03:26:47;;;;;;;9.48;2.05;;;;;;;22.08;66.36;94899.88;5100403;28;20024;-31
2023/10/27 03:29:13;;;;;;;12.25;1.90;;;;;;;21.99;66.67;94897.59;5095636;28;20043;-31
2023/10/27 03:31:39;;;;;;;6.03;1.25;;;;;;;21.92;66.91;94893.47;5095787;28;20023;-33
2023/10/27 03:34:04;;;;;;;10.15;2.30;;;;;;;22.04;66.00;94899.47;5095386;28;20024;-32
2023/10/27 03:36:29;;;;;;;7.85;1.63;;;;;;;21.85;66.66;94903.16;5094474;28;20024;-31
2023/10/27 03:38:55;;;;;;;8.80;2.08;;;;;;;21.80;66.86;94892.97;5103027;28;20078;-31
2023/10/27 03:41:21;;;;;;;5.72;1.50;;;;;;;21.77;66.67;94891.28;5095387;28;20043;-31
2023/10/27 03:43:47;;;;;;;10.95;2.45;;;;;;;21.96;65.91;94887.59;5095517;28;20016;-31
2023/10/27 03:46:12;;;;;;;5.95;1.48;;;;;;;22.10;65.19;94906.34;5095029;28;20028;-31
2023/10/27 03:48:38;;;;;;;10.50;1.98;;;;;;;21.97;65.38;94891.84;5095177;28;20059;-30
2023/10/27 03:51:06;;;;;;;8.38;1.45;;;;;;;21.97;65.61;94872.53;5095330;28;20020;-31
2023/10/27 03:53:32;;;;;;;8.10;1.95;;;;;;;21.92;66.05;94882.41;5094976;28;20047;-31
2023/10/27 03:55:58;;;;;;;6.95;1.27;;;;;;;21.97;65.53;94876.03;5095230;28;20026;-32
2023/10/27 03:58:23;;;;;;;7.50;1.50;;;;;;;21.91;65.79;94874.66;5094861;28;20020;-31
2023/10/27 04:00:49;;;;;;;9.45;1.77;;;;;;;21.96;65.86;94882.81;5094918;28;20027;-31
2023/10/27 04:03:14;;;;;;;12.02;1.83;;;;;;;22.12;65.33;94861.66;5093178;28;20024;-32
2023/10/27 04:05:40;;;;;;;10.93;2.30;;;;;;;21.78;66.49;94845.13;5094683;28;20021;-32
2023/10/27 04:08:05;;;;;;;7.20;1.65;;;;;;;21.70;67.26;94839.53;5095627;28;20510;-31
2023/10/27 04:10:36;;;;;;;7.03;1.83;;;;;;;21.53;67.72;94852.97;5094769;28;20020;-31
2023/10/27 04:13:01;;;;;;;6.90;1.20;;;;;;;21.40;68.50;94833.72;5094776;28;20027;-31
2023/10/27 04:15:27;;;;;;;12.65;2.78;;;;;;;21.73;67.15;94846.75;5094328;28;20037;-33
2023/10/27 04:17:53;;;;;;;10.75;1.55;;;;;;;22.10;65.77;94842.13;5094630;28;20097;-31
2023/10/27 04:20:18;;;;;;;7.68;1.65;;;;;;;21.99;66.33;94836.88;5095829;28;20028;-31
2023/10/27 04:22:44;;;;;;;10.50;1.55;;;;;;;21.68;67.50;94853.13;5094235;28;20028;-31
2023/10/27 04:25:10;;;;;;;11.70;1.67;;;;;;;21.59;68.07;94834.28;5094608;28;20360;-31
2023/10/27 04:27:36;;;;;;;12.35;2.38;;;;;;;21.44;69.23;94831.38;5094250;28;20028;-31
2023/10/27 04:30:07;;;;;;;10.70;1.98;;;;;;;21.71;68.07;94830.00;5094088;28;20119;-32
2023/10/27 04:32:36;;;;;;;9.88;2.00;;;;;;;21.90;67.53;94832.53;5102033;28;20083;-31
2023/10/27 04:35:03;;;;;;;8.00;1.73;;;;;;;21.92;67.02;94827.22;5094482;28;20020;-31
2023/10/27 04:37:30;;;;;;;7.53;1.60;;;;;;;21.53;68.51;94817.13;5101472;28;20493;-31
2023/10/27 04:39:56;;;;;;;10.90;1.73;;;;;;;21.92;67.65;94810.66;5094234;28;20467;-32
2023/10/27 04:42:22;;;;;;;11.40;2.17;;;;;;;21.79;67.83;94811.47;5094434;28;20058;-32
2023/10/27 04:44:48;;;;;;;10.77;2.88;;;;;;;21.50;69.09;94815.47;5093951;28;20012;-31
2023/10/27 04:47:13;;;;;;;8.43;1.88;;;;;;;21.65;68.90;94807.31;5094041;28;20070;-31
2023/10/27 04:49:39;;;;;;;11.63;2.00;;;;;;;21.68;69.28;94806.22;5094553;28;20023;-31
2023/10/27 04:52:05;;;;;;;13.70;2.13;;;;;;;21.76;68.75;94815.31;5094130;28;20398;-31
2023/10/27 04:54:31;;;;;;;13.07;2.40;;;;;;;21.95;68.73;94808.84;5093803;28;20040;-31
2023/10/27 04:56:57;;;;;;;10.77;1.90;;;;;;;21.76;69.42;94815.31;5093888;28;20035;-31
2023/10/27 04:59:22;;;;;;;13.77;2.17;;;;;;;21.75;69.88;94822.13;5093820;28;20016;-31
2023/10/27 05:01:48;;;;;;;11.50;2.95;;;;;;;21.72;69.59;94822.47;5094203;28;20024;-31
2023/10/27 05:04:13;;;;;;;16.92;2.63;;;;;;;21.91;69.02;94809.16;5092508;28;20040;-32
2023/10/27 05:06:38;;;;;;;8.20;1.77;;;;;;;21.74;69.31;94806.84;5100953;28;20019;-31
2023/10/27 05:09:04;;;;;;;10.65;2.33;;;;;;;21.86;68.82;94819.09;5093789;28;20034;-31
2023/10/27 05:11:30;;;;;;;11.35;2.15;;;;;;;21.74;69.06;94806.84;5093986;28;20016;-31
2023/10/27 05:13:57;;;;;;;14.55;2.20;;;;;;;21.78;69.09;94815.50;5093542;28;20036;-31
2023/10/27 05:16:22;;;;;;;12.55;2.30;;;;;;;21.74;69.32;94811.63;5093091;28;20019;-31
2023/10/27 05:18:48;;;;;;;8.45;2.03;;;;;;;21.83;69.02;94809.13;5093765;28;20482;-31
2023/10/27 05:21:17;;;;;;;11.55;2.67;;;;;;;21.71;69.29;94812.69;5100996;28;20031;-32
2023/10/27 05:23:43;;;;;;;9.15;2.03;;;;;;;21.79;68.77;94808.72;5093564;28;20133;-31
2023/10/27 05:26:08;;;;;;;11.88;1.85;;;;;;;21.83;68.97;94800.09;5093412;28;20024;-31
2023/10/27 05:28:34;;;;;;;16.63;2.65;;;;;;;21.98;68.23;94810.53;5092174;28;20023;-31
2023/10/27 05:30:59;;;;;;;8.75;2.30;;;;;;;21.83;68.64;94809.13;5093936;28;20024;-31
2023/10/27 05:33:24;;;;;;;16.55;2.63;;;;;;;21.79;69.17;94797.69;5099540;28;20023;-31
2023/10/27 05:35:50;;;;;;;10.48;1.77;;;;;;;21.74;69.22;94804.09;5093769;28;20077;-31
2023/10/27 05:38:15;;;;;;;16.13;2.75;;;;;;;21.76;69.15;94796.00;5093348;28;20032;-33
2023/10/27 05:40:41;;;;;;;13.95;2.70;;;;;;;21.81;69.37;94814.44;5093463;28;20016;-31
2023/10/27 05:43:07;;;;;;;9.77;2.03;;;;;;;21.79;69.50;94808.72;5099278;28;20046;-31
2023/10/27 05:45:32;;;;;;;9.35;2.20;;;;;;;22.03;68.48;94810.41;5094746;28;20028;-31
2023/10/27 05:47:58;;;;;;;11.13;3.00;;;;;;;22.06;68.35;94819.63;5093375;28;20542;-31
2023/10/27 05:50:23;;;;;;;14.77;2.42;;;;;;;21.95;69.02;94812.34;5093166;28;20107;-31
2023/10/27 05:52:49;;;;;;;13.13;2.70;;;;;;;21.98;68.79;94814.03;5093010;28;20122;-31
2023/10/27 05:55:14;;;;;;;8.63;2.00;;;;;;;21.96;68.57;94824.13;5093438;28;20019;-31
2023/10/27 05:57:41;;;;;;;10.32;3.05;;;;;;;22.06;68.22;94822.38;5093158;28;20036;-31
2023/10/27 06:00:07;;;;;;;13.45;1.85;;;;;;;21.75;69.55;94811.09;5093505;28;20027;-31
2023/10/27 06:02:33;;;;;;;14.88;2.35;;;;;;;21.81;69.21;94810.94;5093905;28;20020;-31
2023/10/27 06:04:58;;;;;;;20.98;2.97;;;;;;;21.84;68.89;94820.91;5093321;28;20390;-31
2023/10/27 06:07:24;;;;;;;18.05;2.35;;;;;;;21.77;69.46;94825.06;5093094;28;20374;-31
2023/10/27 06:09:49;;;;;;;11.75;2.05;;;;;;;21.56;70.29;94831.88;5093504;28;20024;-31
2023/10/27 06:12:15;;;;;;;13.90;2.17;;;;;;;21.88;68.94;94837.13;5093200;28;20067;-31
2023/10/27 06:14:44;;;;;;;18.02;2.42;;;;;;;21.91;68.85;94841.56;5092963;28;20042;-31
2023/10/27 06:17:13;;;;;;;13.07;1.95;;;;;;;21.93;68.81;94839.75;5093498;28;20028;-31
2023/10/27 06:19:38;;;;;;;13.48;2.42;;;;;;;21.88;68.76;94838.59;5093050;28;20073;-31
2023/10/27 06:22:05;;;;;;;10.70;2.13;;;;;;;21.90;68.39;94834.56;5093332;28;20024;-31
2023/10/27 06:24:31;;;;;;;13.63;2.00;;;;;;;21.95;68.64;94825.41;5093157;28;20028;-31
2023/10/27 06:26:58;;;;;;;15.10;2.75;;;;;;;21.93;68.87;94844.50;5094569;28;20028;-31
2023/10/27 06:29:23;;;;;;;13.43;2.30;;;;;;;21.84;69.06;94835.44;5097214;28;20028;-31
2023/10/27 06:31:48;;;;;;;11.23;1.88;;;;;;;21.80;69.02;94865.38;5096666;28;20107;-31
2023/10/27 06:34:14;;;;;;;13.02;2.58;;;;;;;21.98;68.29;94865.72;5096981;28;20032;-31
2023/10/27 06:36:39;;;;;;;15.25;2.10;;;;;;;21.81;68.82;94853.06;5096446;28;20024;-31
2023/10/27 06:39:05;;;;;;;13.82;2.58;;;;;;;21.78;69.19;94873.47;5096466;28;20046;-32
2023/10/27 06:41:30;;;;;;;15.45;3.58;;;;;;;21.92;68.71;94865.13;5096836;28;20505;-31
2023/10/27 06:43:56;;;;;;;13.32;2.05;;;;;;;22.01;68.27;94864.66;5096378;28;20016;-31
2023/10/27 06:46:22;;;;;;;16.13;2.33;;;;;;;21.80;69.38;94875.69;5096498;28;20387;-31
2023/10/27 06:48:47;;;;;;;12.05;2.90;;;;;;;21.95;68.46;94875.81;5096477;28;20463;-31
2023/10/27 06:51:13;;;;;;;11.98;2.00;;;;;;;21.93;68.83;94872.13;5096178;28;20020;-31
2023/10/27 06:53:38;;;;;;;14.40;2.33;;;;;;;21.95;68.51;94869.56;5096051;28;20123;-31
2023/10/27 06:56:04;;;;;;;11.88;3.17;;;;;;;22.03;68.40;94892.47;5095414;28;20050;-31
2023/10/27 06:58:29;;;;;;;16.92;2.42;;;;;;;21.92;68.58;94887.19;5096662;28;20038;-31
2023/10/27 07:00:56;;;;;;;12.52;2.28;;;;;;;21.95;68.41;94900.66;5096175;28;20363;-32
2023/10/27 07:03:22;;;;;;;12.55;2.60;;;;;;;21.75;68.99;94918.69;5095998;28;20016;-31
2023/10/27 07:05:47;;;;;;;12.18;2.50;;;;;;;22.01;68.26;94930.91;5096316;28;20093;-31
2023/10/27 07:08:12;;;;;;;12.32;2.22;;;;;;;21.95;68.12;94942.06;5094877;28;20012;-31
2023/10/27 07:10:39;;;;;;;14.95;2.83;;;;;;;22.05;67.78;94940.34;5095923;28;20030;-31
2023/10/27 07:13:04;;;;;;;14.60;2.38;;;;;;;21.94;67.91;94932.31;5103339;28;20059;-31
2023/10/27 07:15:30;;;;;;;13.18;2.53;;;;;;;22.00;67.84;94943.25;5095897;28;20695;-31
2023/10/27 07:17:55;;;;;;;11.40;2.40;;;;;;;22.09;67.90;94940.75;5095908;28;20471;-31
2023/10/27 07:20:21;;;;;;;14.73;2.40;;;;;;;22.01;68.39;94950.97;5096257;28;20027;-31
2023/10/27 07:22:46;;;;;;;11.93;2.35;;;;;;;22.02;68.01;94944.19;5095926;28;20050;-31
2023/10/27 07:25:12;;;;;;;11.25;2.00;;;;;;;22.10;67.72;94941.50;5102654;28;20489;-32
2023/10/27 07:27:38;;;;;;;13.98;2.95;;;;;;;21.95;68.89;94955.88;5095995;28;20020;-32
2023/10/27 07:30:04;;;;;;;18.60;3.10;;;;;;;21.97;68.48;94960.84;5095405;28;20035;-31
2023/10/27 07:32:29;;;;;;;13.02;1.83;;;;;;;22.10;68.22;94963.59;5102904;28;20054;-31
2023/10/27 07:34:55;;;;;;;15.45;2.33;;;;;;;22.01;67.79;94969.56;5095636;28;20020;-31
2023/10/27 07:37:23;;;;;;;17.83;2.72;;;;;;;21.92;68.04;94962.47;5096068;28;20475;-31
2023/10/27 07:39:48;;;;;;;13.70;2.72;;;;;;;22.06;67.10;94965.94;5101553;28;20020;-31
2023/10/27 07:42:14;;;;;;;15.18;2.55;;;;;;;21.96;67.91;94973.16;5095421;28;20028;-31
2023/10/27 07:44:40;;;;;;;12.45;2.53;;;;;;;22.00;67.64;94987.44;5095183;28;20024;-31
2023/10/27 07:47:06;;;;;;;13.45;2.47;;;;;;;21.94;67.64;94981.25;5095199;28;20020;-31
2023/10/27 07:49:31;;;;;;;18.88;3.22;;;;;;;22.03;67.23;94987.06;5095327;28;20422;-31
2023/10/27 07:51:57;;;;;;;18.90;2.85;;;;;;;22.04;67.71;94988.56;5095066;28;20020;-31
2023/10/27 07:54:22;;;;;;;16.55;2.72;;;;;;;22.06;67.77;94999.06;5095385;28;20098;-31
2023/10/27 07:56:48;;;;;;;21.85;3.53;;;;;;;21.95;67.84;94991.00;5094963;28;20419;-31
2023/10/27 07:59:14;;;;;;;14.25;2.30;;;;;;;21.95;67.00;95004.81;5094888;28;20102;-31
2023/10/27 08:01:39;;;;;;;12.93;2.20;;;;;;;21.96;66.26;95009.06;5095715;28;20080;-32
2023/10/27 08:04:06;;;;;;;18.05;2.90;;;;;;;22.09;65.27;95022.84;5094937;28;20463;-31
2023/10/27 08:06:32;;;;;;;16.55;2.30;;;;;;;21.94;65.25;95011.59;5094868;28;20031;-31
2023/10/27 08:08:57;;;;;;;15.68;2.58;;;;;;;22.03;65.17;95014.69;5095259;28;20024;-31
2023/10/27 08:11:23;;;;;;;13.57;2.10;;;;;;;21.68;65.46;95021.44;5095151;28;20023;-31
2023/10/27 08:13:48;;;;;;;17.55;2.25;;;;;;;21.97;64.54;95016.81;5093532;28;20028;-31
2023/10/27 08:16:14;;;;;;;14.30;2.20;;;;;;;22.00;63.84;95021.28;5094680;28;20016;-31
2023/10/27 08:18:39;;;;;;;14.10;2.17;;;;;;;21.85;64.62;95016.31;5094586;28;20022;-32
2023/10/27 08:21:05;;;;;;;13.50;2.25;;;;;;;21.86;64.70;95012.28;5094780;28;20107;-34
2023/10/27 08:23:30;;;;;;;15.50;2.28;;;;;;;21.86;64.03;95012.28;5094782;28;20398;-31
2023/10/27 08:25:56;;;;;;;10.35;1.63;;;;;;;22.05;63.48;95011.38;5094623;28;20024;-31
2023/10/27 08:28:21;;;;;;;13.52;2.53;;;;;;;21.90;63.92;95002.91;5094490;28;20488;-31
2023/10/27 08:30:48;;;;;;;9.50;1.77;;;;;;;21.84;64.45;95014.09;5094743;28;20020;-31
2023/10/27 08:33:16;;;;;;;11.95;2.08;;;;;;;21.99;64.03;95024.59;5094693;28;20036;-32
2023/10/27 08:35:42;;;;;;;14.65;1.92;;;;;;;22.01;63.92;95027.53;5094254;28;20024;-31
2023/10/27 08:38:08;;;;;;;14.63;2.10;;;;;;;21.82;64.99;95027.66;5094821;28;20097;-32
2023/10/27 08:40:36;;;;;;;9.07;2.25;;;;;;;21.79;65.22;95017.69;5094341;28;20092;-31
2023/10/27 08:43:03;;;;;;;13.48;2.00;;;;;;;21.86;64.62;95033.63;5094249;28;20031;-32
2023/10/27 08:45:29;;;;;;;12.95;2.42;;;;;;;21.78;65.01;95039.03;5094276;28;20012;-31
2023/10/27 08:47:55;;;;;;;12.63;2.33;;;;;;;21.90;64.57;95033.25;5094093;28;20039;-31
2023/10/27 08:50:21;;;;;;;14.93;2.20;;;;;;;21.70;65.34;95049.25;5099984;28;20435;-31
2023/10/27 08:52:48;;;;;;;15.80;3.22;;;;;;;22.01;64.68;95052.38;5095739;28;20381;-31
2023/10/27 08:55:14;;;;;;;12.25;2.17;;;;;;;21.83;65.25;95060.25;5099329;28;20023;-31
2023/10/27 08:57:40;;;;;;;12.13;2.50;;;;;;;21.94;65.51;95064.78;5094180;28;20020;-31
2023/10/27 09:00:07;;;;;;;12.00;2.25;;;;;;;21.83;65.84;95063.00;5094378;28;20169;-31
2023/10/27 09:02:34;;;;;;;12.70;2.38;;;;;;;21.96;65.65;95053.97;5094536;28;20399;-31
2023/10/27 09:05:06;;;;;;;15.32;2.53;;;;;;;21.93;65.87;95048.75;5094020;28;20028;-31
2023/10/27 09:07:32;;;;;;;15.40;2.53;;;;;;;22.09;65.60;95048.44;5101458;28;20020;-31
2023/10/27 09:09:59;;;;;;;18.98;3.67;;;;;;;21.86;65.87;95053.69;5093708;28;20098;-31
2023/10/27 09:12:30;;;;;;;13.95;3.08;;;;;;;22.04;65.66;95059.59;5093986;28;20425;-31
2023/10/27 09:15:00;;;;;;;21.13;2.65;;;;;;;21.95;65.58;95049.72;5093993;28;20024;-31
2023/10/27 09:17:26;;;;;;;15.52;2.53;;;;;;;21.86;66.40;95050.16;5093945;28;20374;-31
2023/10/27 09:20:05;;;;;;;18.67;2.80;;;;;;;22.24;64.99;95058.16;5101164;28;20107;-33
2023/10/27 09:22:30;;;;;;;20.08;2.63;;;;;;;22.28;64.66;95059.31;5099174;28;20413;-32
2023/10/27 09:25:13;;;;;;;14.00;3.17;;;;;;;22.26;64.72;95064.63;5093713;28;20053;-31
2023/10/27 09:27:43;;;;;;;16.75;3.33;;;;;;;22.11;64.98;95059.69;5093658;28;20031;-34
2023/10/27 09:30:12;;;;;;;19.67;3.25;;;;;;;22.17;64.92;95062.31;5092537;28;20391;-31
2023/10/27 09:32:40;;;;;;;17.05;2.40;;;;;;;22.22;64.81;95072.50;5094076;28;20023;-31
2023/10/27 09:35:17;;;;;;;15.15;2.65;;;;;;;22.26;65.11;95069.41;5093627;28;20016;-31
2023/10/27 09:37:43;;;;;;;14.80;2.35;;;;;;;22.02;65.96;95067.66;5093548;28;20560;-31
2023/10/27 09:40:11;;;;;;;9.73;2.53;;;;;;;22.28;64.76;95078.63;5093583;28;20111;-31
2023/10/27 09:42:38;;;;;;;19.63;2.70;;;;;;;22.23;65.19;95093.31;5093417;28;20027;-32
2023/10/27 09:45:09;;;;;;;16.23;3.35;;;;;;;22.22;64.97;95086.31;5093320;28;20471;-31
2023/10/27 09:47:41;;;;;;;18.35;2.72;;;;;;;22.06;65.40;95082.63;5093696;28;20584;-31
2023/10/27 09:50:07;;;;;;;13.40;2.50;;;;;;;22.11;65.45;95098.34;5093752;28;20024;-32
2023/10/27 09:52:39;;;;;;;17.10;2.60;;;;;;;22.10;65.50;95093.34;5093155;28;20020;-31
2023/10/27 09:55:05;;;;;;;10.30;2.05;;;;;;;22.13;65.34;95090.25;5093656;28;20048;-31
2023/10/27 09:57:31;;;;;;;15.68;2.72;;;;;;;22.07;65.73;95099.94;5093177;28;20066;-31
2023/10/27 09:59:58;;;;;;;17.48;2.50;;;;;;;22.16;65.70;95105.00;5093953;28;20020;-31
2023/10/27 10:02:24;;;;;;;15.95;3.08;;;;;;;22.32;65.29;95109.44;5096259;28;20050;-31
2023/10/27 10:04:52;;;;;;;12.95;1.95;;;;;;;22.25;65.34;95112.88;5096945;28;20080;-31
2023/10/27 10:07:27;;;;;;;16.85;2.40;;;;;;;22.34;65.02;95111.66;5097424;28;20462;-32
2023/10/27 10:09:53;;;;;;;19.77;3.38;;;;;;;22.36;65.09;95109.84;5096940;28;20051;-31
2023/10/27 10:12:18;;;;;;;14.57;3.08;;;;;;;22.28;65.84;95109.00;5097223;28;20467;-31
2023/10/27 10:14:45;;;;;;;15.88;2.95;;;;;;;22.24;65.31;95111.38;5097009;28;20107;-32
2023/10/27 10:17:10;;;;;;;15.38;2.88;;;;;;;22.24;65.09;95100.34;5097335;28;20032;-31
2023/10/27 10:19:49;;;;;;;15.82;2.22;;;;;;;22.33;64.80;95115.69;5097254;28;20031;-31
2023/10/27 10:22:48;;;;;;;15.25;2.92;;;;;;;22.44;64.04;95107.91;5096922;28;20024;-31
2023/10/27 10:25:19;;;;;;;15.55;2.67;;;;;;;22.32;65.01;95101.16;5075016;28;20088;-31
2023/10/27 10:28:09;;;;;;;19.85;3.03;;;;;;;22.29;64.80;95107.00;5096673;28;20051;-31
2023/10/27 10:30:38;;;;;;;13.20;2.25;;;;;;;22.40;64.38;95107.47;5096927;28;20073;-31
2023/10/27 10:33:16;;;;;;;13.52;2.80;;;;;;;22.43;64.13;95105.69;5097163;28;20054;-31
2023/10/27 10:35:48;;;;;;;19.42;2.78;;;;;;;22.43;64.39;95108.44;5096852;28;20052;-31
2023/10/27 10:38:19;;;;;;;20.17;2.77;;;;;;;22.17;65.28;95114.78;5096646;28;20028;-31
2023/10/27 10:40:55;;;;;;;15.82;2.63;;;;;;;22.39;64.15;95117.06;5096555;28;20363;-31
2023/10/27 10:43:32;;;;;;;14.52;2.75;;;;;;;22.47;64.04;95120.66;5097031;28;20086;-31
2023/10/27 10:46:03;;;;;;;18.35;2.80;;;;;;;22.37;64.13;95116.13;5103265;28;20046;-31
2023/10/27 10:48:33;;;;;;;16.33;2.75;;;;;;;22.32;64.21;95109.44;5096397;28;20477;-31
2023/10/27 10:51:30;;;;;;;13.75;2.60;;;;;;;22.31;64.17;95116.22;5096436;28;20031;-32
2023/10/27 10:53:56;;;;;;;15.15;2.70;;;;;;;22.39;63.60;95111.53;5103447;28;20075;-31
2023/10/27 10:56:22;;;;;;;14.40;2.85;;;;;;;22.38;63.61;95107.28;5096860;28;20016;-31
2023/10/27 10:58:48;;;;;;;12.90;2.30;;;;;;;22.33;64.19;95102.63;5096539;28;20054;-32
2023/10/27 11:01:19;;;;;;;18.73;3.45;;;;;;;22.39;63.40;95096.97;5096918;28;20024;-33
2023/10/27 11:03:49;;;;;;;13.75;2.47;;;;;;;22.43;63.32;95100.91;5095810;28;20028;-32
2023/10/27 11:06:14;;;;;;;13.70;2.83;;;;;;;22.29;63.93;95104.22;5096173;28;20042;-31
2023/10/27 11:08:40;;;;;;;20.63;3.33;;;;;;;22.39;63.22;95094.94;5094642;28;20460;-32
2023/10/27 11:11:13;;;;;;;15.52;2.58;;;;;;;22.43;63.49;95111.19;5097944;28;20028;-31
2023/10/27 11:13:41;;;;;;;20.45;3.28;;;;;;;22.20;63.71;95111.69;5099051;28;20024;-31
2023/10/27 11:16:26;;;;;;;15.20;3.35;;;;;;;22.21;63.87;95113.19;5096310;28;20016;-31
2023/10/27 11:18:59;;;;;;;16.30;2.72;;;;;;;22.29;63.95;95107.72;5095931;28;20023;-32
2023/10/27 11:21:27;;;;;;;13.45;2.67;;;;;;;22.22;64.79;95124.97;5095816;28;20106;-31
2023/10/27 11:23:53;;;;;;;18.40;2.50;;;;;;;22.34;63.62;95119.94;5094501;28;20448;-31